sensor_id;sensor_type;location;lat;lon;timestamp;pressure;altitude;pressure_sealevel;temperature;humidity
15314;BME280;7757;52.626;4.746;2023-06-14T00:00:46;101388.09;;;20.45;52.61
15314;BME280;7757;52.626;4.746;2023-06-14T00:03:13;101520.19;;;20.58;54.45
15314;BME280;7757;52.626;4.746;2023-06-14T00:05:43;101514.00;;;21.44;53.18
15314;BME280;7757;52.626;4.746;2023-06-14T00:08:09;101504.03;;;21.49;51.88
15314;BME280;7757;52.626;4.746;2023-06-14T00:10:38;101438.53;;;20.30;53.38
15314;BME280;7757;52.626;4.746;2023-06-14T00:13:06;101497.53;;;21.10;53.11
15314;BME280;7757;52.626;4.746;2023-06-14T00:15:32;101507.31;;;20.77;53.53
15314;BME280;7757;52.626;4.746;2023-06-14T00:18:02;101375.44;;;20.04;53.46
15314;BME280;7757;52.626;4.746;2023-06-14T00:20:32;101355.44;;;19.99;53.26
15314;BME280;7757;52.626;4.746;2023-06-14T00:23:01;101449.88;;;20.73;52.37
15314;BME280;7757;52.626;4.746;2023-06-14T00:25:27;101455.56;;;20.37;54.13
15314;BME280;7757;52.626;4.746;2023-06-14T00:27:54;101448.34;;;20.77;52.75
15314;BME280;7757;52.626;4.746;2023-06-14T00:30:20;101391.75;;;20.16;53.74
15314;BME280;7757;52.626;4.746;2023-06-14T00:32:46;101499.84;;;20.49;53.34
15314;BME280;7757;52.626;4.746;2023-06-14T00:35:12;101492.53;;;20.49;53.92
15314;BME280;7757;52.626;4.746;2023-06-14T00:37:38;101493.59;;;20.95;52.59
15314;BME280;7757;52.626;4.746;2023-06-14T00:40:04;101338.84;;;19.95;52.38
15314;BME280;7757;52.626;4.746;2023-06-14T00:42:30;101407.81;;;20.64;53.60
15314;BME280;7757;52.626;4.746;2023-06-14T00:44:55;101438.63;;;19.70;53.79
15314;BME280;7757;52.626;4.746;2023-06-14T00:47:21;101507.31;;;21.00;52.02
15314;BME280;7757;52.626;4.746;2023-06-14T00:49:53;101475.28;;;20.79;52.46
15314;BME280;7757;52.626;4.746;2023-06-14T00:52:20;101452.59;;;19.85;53.88
15314;BME280;7757;52.626;4.746;2023-06-14T00:54:46;101436.66;;;20.30;53.31
15314;BME280;7757;52.626;4.746;2023-06-14T00:57:12;101445.06;;;20.64;52.02
15314;BME280;7757;52.626;4.746;2023-06-14T00:59:43;101322.00;;;19.52;52.99
15314;BME280;7757;52.626;4.746;2023-06-14T01:02:09;101452.13;;;20.65;51.41
15314;BME280;7757;52.626;4.746;2023-06-14T01:04:34;101452.00;;;20.59;51.85
15314;BME280;7757;52.626;4.746;2023-06-14T01:07:08;101478.09;;;20.37;52.31
15314;BME280;7757;52.626;4.746;2023-06-14T01:14:55;101398.09;;;19.87;51.46
15314;BME280;7757;52.626;4.746;2023-06-14T01:17:22;101494.31;;;20.44;52.46
15314;BME280;7757;52.626;4.746;2023-06-14T01:19:48;101405.69;;;19.67;52.59
15314;BME280;7757;52.626;4.746;2023-06-14T01:22:14;101495.72;;;20.46;51.77
15314;BME280;7757;52.626;4.746;2023-06-14T01:24:39;101501.53;;;21.08;50.64
15314;BME280;7757;52.626;4.746;2023-06-14T01:27:13;101281.78;;;19.61;51.42
15314;BME280;7757;52.626;4.746;2023-06-14T01:29:40;101448.56;;;20.52;51.48
15314;BME280;7757;52.626;4.746;2023-06-14T01:32:11;101387.34;;;19.92;51.25
15314;BME280;7757;52.626;4.746;2023-06-14T01:34:36;101505.78;;;20.57;51.84
15314;BME280;7757;52.626;4.746;2023-06-14T01:37:02;101502.06;;;21.33;51.55
15314;BME280;7757;52.626;4.746;2023-06-14T01:39:30;101450.59;;;20.45;50.65
15314;BME280;7757;52.626;4.746;2023-06-14T01:41:56;101375.09;;;20.36;50.59
15314;BME280;7757;52.626;4.746;2023-06-14T01:44:27;101446.78;;;19.82;51.79
15314;BME280;7757;52.626;4.746;2023-06-14T01:46:53;101486.03;;;20.74;50.86
15314;BME280;7757;52.626;4.746;2023-06-14T01:49:20;101507.69;;;21.15;50.97
15314;BME280;7757;52.626;4.746;2023-06-14T01:51:45;101475.63;;;20.36;51.70
15314;BME280;7757;52.626;4.746;2023-06-14T01:54:11;101481.41;;;19.86;52.77
15314;BME280;7757;52.626;4.746;2023-06-14T01:56:36;101483.44;;;20.55;52.04
15314;BME280;7757;52.626;4.746;2023-06-14T01:59:01;101450.41;;;20.17;51.70
15314;BME280;7757;52.626;4.746;2023-06-14T02:01:26;101444.38;;;20.03;51.25
15314;BME280;7757;52.626;4.746;2023-06-14T02:03:52;101351.66;;;19.65;50.67
15314;BME280;7757;52.626;4.746;2023-06-14T02:06:18;101409.19;;;19.37;51.52
15314;BME280;7757;52.626;4.746;2023-06-14T02:08:44;101450.41;;;20.05;52.50
15314;BME280;7757;52.626;4.746;2023-06-14T02:11:10;101507.69;;;20.16;51.90
15314;BME280;7757;52.626;4.746;2023-06-14T02:13:35;101418.47;;;20.42;50.61
15314;BME280;7757;52.626;4.746;2023-06-14T02:16:01;101427.09;;;19.75;52.13
15314;BME280;7757;52.626;4.746;2023-06-14T02:18:26;101509.19;;;20.53;51.04
15314;BME280;7757;52.626;4.746;2023-06-14T02:20:52;101422.34;;;19.70;52.23
15314;BME280;7757;52.626;4.746;2023-06-14T02:23:17;101499.63;;;20.50;52.27
15314;BME280;7757;52.626;4.746;2023-06-14T02:25:43;101502.81;;;20.94;50.12
15314;BME280;7757;52.626;4.746;2023-06-14T02:28:10;101471.44;;;20.10;52.67
15314;BME280;7757;52.626;4.746;2023-06-14T02:30:38;101443.75;;;19.30;53.16
15314;BME280;7757;52.626;4.746;2023-06-14T02:33:04;101465.63;;;19.95;51.98
15314;BME280;7757;52.626;4.746;2023-06-14T02:35:30;101501.97;;;20.47;52.15
15314;BME280;7757;52.626;4.746;2023-06-14T02:37:55;101428.69;;;19.64;52.59
15314;BME280;7757;52.626;4.746;2023-06-14T02:40:24;101409.97;;;19.44;53.37
15314;BME280;7757;52.626;4.746;2023-06-14T02:42:49;101504.34;;;19.72;52.38
15314;BME280;7757;52.626;4.746;2023-06-14T02:45:18;101393.03;;;19.01;53.18
15314;BME280;7757;52.626;4.746;2023-06-14T02:47:43;101479.28;;;19.59;54.25
15314;BME280;7757;52.626;4.746;2023-06-14T02:50:08;101491.56;;;19.61;53.49
15314;BME280;7757;52.626;4.746;2023-06-14T02:52:34;101400.56;;;19.88;52.39
15314;BME280;7757;52.626;4.746;2023-06-14T02:55:02;101432.94;;;19.60;53.69
15314;BME280;7757;52.626;4.746;2023-06-14T02:57:28;101387.47;;;19.56;51.75
15314;BME280;7757;52.626;4.746;2023-06-14T02:59:53;101520.81;;;19.59;52.21
15314;BME280;7757;52.626;4.746;2023-06-14T03:02:19;101423.25;;;19.64;52.87
15314;BME280;7757;52.626;4.746;2023-06-14T03:04:44;101435.16;;;19.15;51.91
15314;BME280;7757;52.626;4.746;2023-06-14T03:07:12;101464.75;;;19.17;53.28
15314;BME280;7757;52.626;4.746;2023-06-14T03:09:40;101427.50;;;18.76;53.80
15314;BME280;7757;52.626;4.746;2023-06-14T03:12:06;101461.34;;;19.58;51.94
15314;BME280;7757;52.626;4.746;2023-06-14T03:14:37;101493.66;;;19.77;52.86
15314;BME280;7757;52.626;4.746;2023-06-14T03:17:03;101427.81;;;19.52;52.18
15314;BME280;7757;52.626;4.746;2023-06-14T03:19:30;101470.88;;;19.12;53.70
15314;BME280;7757;52.626;4.746;2023-06-14T03:21:56;101483.97;;;19.52;51.94
15314;BME280;7757;52.626;4.746;2023-06-14T03:24:24;101405.97;;;18.63;55.28
15314;BME280;7757;52.626;4.746;2023-06-14T03:26:53;101442.47;;;18.97;53.17
15314;BME280;7757;52.626;4.746;2023-06-14T03:29:18;101542.25;;;18.88;54.73
15314;BME280;7757;52.626;4.746;2023-06-14T03:31:58;101443.38;;;19.09;52.67
15314;BME280;7757;52.626;4.746;2023-06-14T03:34:23;101514.88;;;19.51;53.03
15314;BME280;7757;52.626;4.746;2023-06-14T03:36:49;101481.03;;;18.99;53.65
15314;BME280;7757;52.626;4.746;2023-06-14T03:39:14;101383.94;;;18.10;53.18
15314;BME280;7757;52.626;4.746;2023-06-14T03:41:40;101470.38;;;19.52;53.44
15314;BME280;7757;52.626;4.746;2023-06-14T03:44:15;101471.41;;;19.03;53.72
15314;BME280;7757;52.626;4.746;2023-06-14T03:46:41;101472.16;;;18.91;54.47
15314;BME280;7757;52.626;4.746;2023-06-14T03:49:07;101525.47;;;18.48;55.27
15314;BME280;7757;52.626;4.746;2023-06-14T03:51:32;101352.69;;;17.89;53.81
15314;BME280;7757;52.626;4.746;2023-06-14T03:54:00;101463.59;;;18.52;54.76
15314;BME280;7757;52.626;4.746;2023-06-14T03:56:25;101527.38;;;19.33;53.28
15314;BME280;7757;52.626;4.746;2023-06-14T03:58:52;101424.44;;;18.23;54.91
15314;BME280;7757;52.626;4.746;2023-06-14T04:01:17;101535.28;;;19.71;53.18
15314;BME280;7757;52.626;4.746;2023-06-14T04:03:45;101521.72;;;19.17;53.82
15314;BME280;7757;52.626;4.746;2023-06-14T04:06:11;101468.69;;;19.39;52.88
15314;BME280;7757;52.626;4.746;2023-06-14T04:08:36;101567.78;;;19.60;54.06
15314;BME280;7757;52.626;4.746;2023-06-14T04:11:04;101500.91;;;19.29;53.65
15314;BME280;7757;52.626;4.746;2023-06-14T04:13:30;101485.31;;;18.88;53.76
15314;BME280;7757;52.626;4.746;2023-06-14T04:15:56;101416.97;;;19.34;52.38
15314;BME280;7757;52.626;4.746;2023-06-14T04:18:22;101578.69;;;20.19;52.45
15314;BME280;7757;52.626;4.746;2023-06-14T04:20:47;101570.38;;;19.84;53.21
15314;BME280;7757;52.626;4.746;2023-06-14T04:23:14;101487.03;;;20.15;51.03
15314;BME280;7757;52.626;4.746;2023-06-14T04:25:43;101487.25;;;19.42;53.12
15314;BME280;7757;52.626;4.746;2023-06-14T04:28:14;101499.19;;;20.12;52.32
15314;BME280;7757;52.626;4.746;2023-06-14T04:30:43;101515.94;;;19.49;53.02
15314;BME280;7757;52.626;4.746;2023-06-14T04:33:10;101553.63;;;20.47;51.44
15314;BME280;7757;52.626;4.746;2023-06-14T04:35:36;101553.16;;;20.20;51.85
15314;BME280;7757;52.626;4.746;2023-06-14T04:38:05;101405.28;;;18.67;53.25
15314;BME280;7757;52.626;4.746;2023-06-14T04:40:34;101585.88;;;19.84;53.70
15314;BME280;7757;52.626;4.746;2023-06-14T04:43:01;101420.31;;;19.66;50.65
15314;BME280;7757;52.626;4.746;2023-06-14T04:45:30;101584.22;;;20.42;52.18
15314;BME280;7757;52.626;4.746;2023-06-14T04:47:58;101538.31;;;19.93;52.70
15314;BME280;7757;52.626;4.746;2023-06-14T04:50:24;101589.19;;;20.45;52.56
15314;BME280;7757;52.626;4.746;2023-06-14T04:52:50;101582.47;;;20.18;53.13
15314;BME280;7757;52.626;4.746;2023-06-14T04:55:17;101585.88;;;20.43;52.01
15314;BME280;7757;52.626;4.746;2023-06-14T04:57:44;101539.72;;;19.84;53.09
15314;BME280;7757;52.626;4.746;2023-06-14T05:00:10;101590.81;;;19.32;54.39
15314;BME280;7757;52.626;4.746;2023-06-14T05:02:36;101567.94;;;19.65;54.20
15314;BME280;7757;52.626;4.746;2023-06-14T05:05:03;101491.75;;;19.30;53.81
15314;BME280;7757;52.626;4.746;2023-06-14T05:07:31;101483.84;;;18.92;54.40
15314;BME280;7757;52.626;4.746;2023-06-14T05:09:59;101571.47;;;19.47;54.71
15314;BME280;7757;52.626;4.746;2023-06-14T05:12:24;101600.84;;;20.04;53.83
15314;BME280;7757;52.626;4.746;2023-06-14T05:14:50;101426.81;;;19.65;52.56
15314;BME280;7757;52.626;4.746;2023-06-14T05:17:27;101500.75;;;18.87;54.91
15314;BME280;7757;52.626;4.746;2023-06-14T05:19:53;101601.72;;;19.69;54.53
15314;BME280;7757;52.626;4.746;2023-06-14T05:22:20;101591.56;;;19.94;54.18
15314;BME280;7757;52.626;4.746;2023-06-14T05:24:46;101536.25;;;20.07;53.24
15314;BME280;7757;52.626;4.746;2023-06-14T05:27:13;101469.09;;;19.42;53.06
15314;BME280;7757;52.626;4.746;2023-06-14T05:29:41;101603.88;;;20.68;52.86
15314;BME280;7757;52.626;4.746;2023-06-14T05:32:07;101580.50;;;20.78;52.16
15314;BME280;7757;52.626;4.746;2023-06-14T05:34:36;101549.50;;;20.91;50.99
15314;BME280;7757;52.626;4.746;2023-06-14T05:37:01;101522.78;;;20.65;51.73
15314;BME280;7757;52.626;4.746;2023-06-14T05:39:29;101463.06;;;21.56;48.27
15314;BME280;7757;52.626;4.746;2023-06-14T05:41:54;101608.63;;;22.16;48.87
15314;BME280;7757;52.626;4.746;2023-06-14T05:44:26;101606.13;;;21.75;49.52
15314;BME280;7757;52.626;4.746;2023-06-14T05:46:51;101552.97;;;21.21;50.16
15314;BME280;7757;52.626;4.746;2023-06-14T05:49:17;101610.41;;;22.39;48.64
15314;BME280;7757;52.626;4.746;2023-06-14T05:51:42;101613.41;;;22.26;48.87
15314;BME280;7757;52.626;4.746;2023-06-14T05:54:08;101550.75;;;22.59;47.58
15314;BME280;7757;52.626;4.746;2023-06-14T05:56:33;101541.19;;;21.95;48.73
15314;BME280;7757;52.626;4.746;2023-06-14T05:58:58;101498.41;;;21.67;48.33
15314;BME280;7757;52.626;4.746;2023-06-14T06:01:24;101548.47;;;22.35;48.48
15314;BME280;7757;52.626;4.746;2023-06-14T06:03:50;101618.91;;;22.88;48.31
15314;BME280;7757;52.626;4.746;2023-06-14T06:06:15;101508.63;;;22.17;47.60
15314;BME280;7757;52.626;4.746;2023-06-14T06:08:41;101626.53;;;22.57;48.14
15314;BME280;7757;52.626;4.746;2023-06-14T06:11:08;101628.16;;;23.03;48.01
15314;BME280;7757;52.626;4.746;2023-06-14T06:13:33;101636.75;;;22.95;47.63
15314;BME280;7757;52.626;4.746;2023-06-14T06:16:00;101634.59;;;22.97;47.25
15314;BME280;7757;52.626;4.746;2023-06-14T06:18:25;101583.28;;;22.33;48.64
15314;BME280;7757;52.626;4.746;2023-06-14T06:20:50;101541.50;;;23.10;46.55
15314;BME280;7757;52.626;4.746;2023-06-14T06:23:16;101622.38;;;24.15;45.19
15314;BME280;7757;52.626;4.746;2023-06-14T06:25:42;101537.81;;;23.00;46.02
15314;BME280;7757;52.626;4.746;2023-06-14T06:28:08;101574.94;;;22.84;46.80
15314;BME280;7757;52.626;4.746;2023-06-14T06:30:36;101536.81;;;23.44;45.47
15314;BME280;7757;52.626;4.746;2023-06-14T06:33:02;101594.06;;;24.04;45.23
15314;BME280;7757;52.626;4.746;2023-06-14T06:35:28;101608.03;;;24.29;44.07
15314;BME280;7757;52.626;4.746;2023-06-14T06:37:55;101581.69;;;23.75;45.33
15314;BME280;7757;52.626;4.746;2023-06-14T06:40:20;101363.63;;;22.32;44.96
15314;BME280;7757;52.626;4.746;2023-06-14T06:42:46;101550.56;;;23.76;44.27
15314;BME280;7757;52.626;4.746;2023-06-14T06:45:11;101463.69;;;21.75;47.56
15314;BME280;7757;52.626;4.746;2023-06-14T06:47:37;101578.31;;;22.74;46.42
15314;BME280;7757;52.626;4.746;2023-06-14T06:50:02;101486.69;;;22.95;45.29
15314;BME280;7757;52.626;4.746;2023-06-14T06:52:28;101484.47;;;23.52;43.94
15314;BME280;7757;52.626;4.746;2023-06-14T06:54:54;101444.06;;;22.34;45.58
15314;BME280;7757;52.626;4.746;2023-06-14T06:57:21;101548.09;;;23.53;44.87
15314;BME280;7757;52.626;4.746;2023-06-14T06:59:48;101538.69;;;23.65;44.27
15314;BME280;7757;52.626;4.746;2023-06-14T07:02:13;101588.59;;;24.26;43.91
15314;BME280;7757;52.626;4.746;2023-06-14T07:04:39;101592.63;;;23.75;44.25
15314;BME280;7757;52.626;4.746;2023-06-14T07:07:04;101450.00;;;23.03;44.13
15314;BME280;7757;52.626;4.746;2023-06-14T07:09:29;101661.19;;;24.38;44.58
15314;BME280;7757;52.626;4.746;2023-06-14T07:11:55;101543.25;;;23.38;44.58
15314;BME280;7757;52.626;4.746;2023-06-14T07:14:20;101590.16;;;23.73;44.21
15314;BME280;7757;52.626;4.746;2023-06-14T07:16:48;101514.13;;;22.67;45.69
15314;BME280;7757;52.626;4.746;2023-06-14T07:19:14;101605.75;;;24.00;44.37
15314;BME280;7757;52.626;4.746;2023-06-14T07:21:40;101632.56;;;24.24;44.39
15314;BME280;7757;52.626;4.746;2023-06-14T07:24:06;101655.13;;;23.71;44.94
15314;BME280;7757;52.626;4.746;2023-06-14T07:26:31;101526.56;;;23.18;44.93
15314;BME280;7757;52.626;4.746;2023-06-14T07:28:57;101545.81;;;23.66;44.10
15314;BME280;7757;52.626;4.746;2023-06-14T07:31:22;101557.13;;;24.02;44.00
15314;BME280;7757;52.626;4.746;2023-06-14T07:33:47;101686.41;;;24.46;44.19
15314;BME280;7757;52.626;4.746;2023-06-14T07:36:13;101625.16;;;24.47;43.74
15314;BME280;7757;52.626;4.746;2023-06-14T07:38:38;101591.19;;;24.16;44.18
15314;BME280;7757;52.626;4.746;2023-06-14T07:41:05;101665.25;;;25.21;42.65
15314;BME280;7757;52.626;4.746;2023-06-14T07:43:30;101499.94;;;24.22;42.75
15314;BME280;7757;52.626;4.746;2023-06-14T07:45:56;101704.22;;;25.70;41.96
15314;BME280;7757;52.626;4.746;2023-06-14T07:48:22;101664.28;;;25.89;41.49
15314;BME280;7757;52.626;4.746;2023-06-14T07:50:47;101602.50;;;25.15;41.64
15314;BME280;7757;52.626;4.746;2023-06-14T07:53:13;101703.75;;;25.46;42.06
15314;BME280;7757;52.626;4.746;2023-06-14T07:55:38;101665.25;;;26.15;40.95
15314;BME280;7757;52.626;4.746;2023-06-14T07:58:06;101637.94;;;25.78;40.56
15314;BME280;7757;52.626;4.746;2023-06-14T08:00:32;101639.06;;;25.92;40.63
15314;BME280;7757;52.626;4.746;2023-06-14T08:02:57;101678.41;;;25.66;42.10
15314;BME280;7757;52.626;4.746;2023-06-14T08:05:25;101699.22;;;26.14;41.66
15314;BME280;7757;52.626;4.746;2023-06-14T08:07:54;101623.06;;;25.64;41.44
15314;BME280;7757;52.626;4.746;2023-06-14T08:10:20;101691.44;;;25.96;41.73
15314;BME280;7757;52.626;4.746;2023-06-14T08:12:46;101636.78;;;25.27;41.15
15314;BME280;7757;52.626;4.746;2023-06-14T08:15:12;101711.00;;;26.10;41.72
15314;BME280;7757;52.626;4.746;2023-06-14T08:17:37;101692.78;;;25.83;41.65
15314;BME280;7757;52.626;4.746;2023-06-14T08:20:03;101711.69;;;26.47;40.77
15314;BME280;7757;52.626;4.746;2023-06-14T08:22:30;101602.97;;;25.48;40.82
15314;BME280;7757;52.626;4.746;2023-06-14T08:25:01;101711.50;;;26.01;41.38
15314;BME280;7757;52.626;4.746;2023-06-14T08:27:27;101585.78;;;25.58;41.07
15314;BME280;7757;52.626;4.746;2023-06-14T08:29:53;101694.97;;;25.86;41.30
15314;BME280;7757;52.626;4.746;2023-06-14T08:32:18;101679.72;;;26.11;41.07
15314;BME280;7757;52.626;4.746;2023-06-14T08:34:44;101708.25;;;26.10;40.91
15314;BME280;7757;52.626;4.746;2023-06-14T08:37:09;101628.50;;;26.16;40.23
15314;BME280;7757;52.626;4.746;2023-06-14T08:39:34;101681.34;;;26.01;40.59
15314;BME280;7757;52.626;4.746;2023-06-14T08:42:01;101648.66;;;25.90;40.77
15314;BME280;7757;52.626;4.746;2023-06-14T08:44:27;101714.81;;;26.03;40.79
15314;BME280;7757;52.626;4.746;2023-06-14T08:46:55;101710.19;;;26.14;40.67
15314;BME280;7757;52.626;4.746;2023-06-14T08:49:22;101621.25;;;25.90;39.77
15314;BME280;7757;52.626;4.746;2023-06-14T08:51:56;101666.16;;;25.74;40.19
15314;BME280;7757;52.626;4.746;2023-06-14T08:54:23;101683.56;;;25.52;39.69
15314;BME280;7757;52.626;4.746;2023-06-14T08:56:49;101703.66;;;26.25;39.90
15314;BME280;7757;52.626;4.746;2023-06-14T08:59:17;101647.72;;;25.64;40.18
15314;BME280;7757;52.626;4.746;2023-06-14T09:01:44;101589.47;;;25.37;39.87
15314;BME280;7757;52.626;4.746;2023-06-14T09:04:10;101713.06;;;26.49;39.00
15314;BME280;7757;52.626;4.746;2023-06-14T09:06:36;101715.78;;;26.34;39.40
15314;BME280;7757;52.626;4.746;2023-06-14T09:09:02;101525.19;;;24.98;39.14
15314;BME280;7757;52.626;4.746;2023-06-14T09:11:30;101553.53;;;25.28;39.12
15314;BME280;7757;52.626;4.746;2023-06-14T09:13:56;101721.56;;;26.43;38.85
15314;BME280;7757;52.626;4.746;2023-06-14T09:16:21;101730.63;;;26.48;38.16
15314;BME280;7757;52.626;4.746;2023-06-14T09:18:47;101699.59;;;26.33;38.55
15314;BME280;7757;52.626;4.746;2023-06-14T09:21:14;101521.03;;;24.95;38.71
15314;BME280;7757;52.626;4.746;2023-06-14T09:23:41;101718.03;;;25.95;38.86
15314;BME280;7757;52.626;4.746;2023-06-14T09:26:14;101722.50;;;26.06;39.21
15314;BME280;7757;52.626;4.746;2023-06-14T09:28:43;101714.16;;;26.33;38.30
15314;BME280;7757;52.626;4.746;2023-06-14T09:31:13;101583.09;;;25.68;38.36
15314;BME280;7757;52.626;4.746;2023-06-14T09:33:42;101731.00;;;26.77;37.76
15314;BME280;7757;52.626;4.746;2023-06-14T09:36:15;101577.78;;;25.51;38.51
15314;BME280;7757;52.626;4.746;2023-06-14T09:38:42;101720.47;;;26.44;37.79
15314;BME280;7757;52.626;4.746;2023-06-14T09:41:07;101553.13;;;25.51;37.26
15314;BME280;7757;52.626;4.746;2023-06-14T09:43:36;101641.25;;;25.85;37.26
15314;BME280;7757;52.626;4.746;2023-06-14T09:46:06;101731.06;;;26.15;37.66
15314;BME280;7757;52.626;4.746;2023-06-14T09:48:37;101631.31;;;25.69;37.63
15314;BME280;7757;52.626;4.746;2023-06-14T09:51:05;101643.31;;;25.63;37.30
15314;BME280;7757;52.626;4.746;2023-06-14T09:53:33;101618.53;;;25.95;36.38
15314;BME280;7757;52.626;4.746;2023-06-14T09:56:05;101639.44;;;25.54;36.38
15314;BME280;7757;52.626;4.746;2023-06-14T09:58:35;101728.13;;;26.37;36.61
15314;BME280;7757;52.626;4.746;2023-06-14T10:01:08;101654.06;;;25.75;36.39
15314;BME280;7757;52.626;4.746;2023-06-14T10:03:34;101663.72;;;25.87;35.83
15314;BME280;7757;52.626;4.746;2023-06-14T10:06:02;101732.03;;;25.99;35.64
15314;BME280;7757;52.626;4.746;2023-06-14T10:08:30;101722.88;;;26.25;35.16
15314;BME280;7757;52.626;4.746;2023-06-14T10:10:59;101666.78;;;25.96;35.00
15314;BME280;7757;52.626;4.746;2023-06-14T10:13:26;101734.19;;;26.49;34.15
15314;BME280;7757;52.626;4.746;2023-06-14T10:16:14;101659.47;;;26.17;35.03
15314;BME280;7757;52.626;4.746;2023-06-14T10:18:51;101734.75;;;26.46;34.04
15314;BME280;7757;52.626;4.746;2023-06-14T10:24:08;101575.41;;;25.18;35.11
15314;BME280;7757;52.626;4.746;2023-06-14T10:26:50;101691.84;;;26.15;35.13
15314;BME280;7757;52.626;4.746;2023-06-14T10:29:19;101704.31;;;26.57;34.46
15314;BME280;7757;52.626;4.746;2023-06-14T10:31:51;101735.56;;;26.51;33.55
15314;BME280;7757;52.626;4.746;2023-06-14T10:34:28;101703.41;;;26.22;32.91
15314;BME280;7757;52.626;4.746;2023-06-14T10:37:04;101739.09;;;26.32;32.94
15314;BME280;7757;52.626;4.746;2023-06-14T10:39:30;101687.22;;;25.68;33.93
15314;BME280;7757;52.626;4.746;2023-06-14T10:41:57;101678.41;;;25.66;34.04
15314;BME280;7757;52.626;4.746;2023-06-14T10:46:49;101740.16;;;26.31;34.52
15314;BME280;7757;52.626;4.746;2023-06-14T10:49:18;101653.72;;;25.56;34.90
15314;BME280;7757;52.626;4.746;2023-06-14T10:51:45;101649.34;;;25.60;35.24
15314;BME280;7757;52.626;4.746;2023-06-14T10:54:17;101688.28;;;26.19;34.34
15314;BME280;7757;52.626;4.746;2023-06-14T10:56:49;101737.94;;;26.23;35.29
15314;BME280;7757;52.626;4.746;2023-06-14T10:59:18;101706.69;;;26.24;35.18
15314;BME280;7757;52.626;4.746;2023-06-14T11:04:51;101739.97;;;26.42;35.05
15314;BME280;7757;52.626;4.746;2023-06-14T11:12:48;101682.38;;;25.85;36.07
15314;BME280;7757;52.626;4.746;2023-06-14T11:15:14;101693.66;;;25.99;36.64
15314;BME280;7757;52.626;4.746;2023-06-14T11:17:50;101731.50;;;26.64;36.24
15314;BME280;7757;52.626;4.746;2023-06-14T11:20:16;101684.16;;;26.17;35.91
15314;BME280;7757;52.626;4.746;2023-06-14T11:22:42;101721.84;;;26.51;36.68
15314;BME280;7757;52.626;4.746;2023-06-14T11:25:13;101701.63;;;26.00;36.17
15314;BME280;7757;52.626;4.746;2023-06-14T11:27:41;101602.53;;;25.67;36.52
15314;BME280;7757;52.626;4.746;2023-06-14T11:30:07;101608.69;;;25.42;36.50
15314;BME280;7757;52.626;4.746;2023-06-14T11:32:33;101623.09;;;25.69;36.18
15314;BME280;7757;52.626;4.746;2023-06-14T11:34:58;101704.50;;;26.21;36.11
15314;BME280;7757;52.626;4.746;2023-06-14T11:37:27;101610.88;;;25.45;36.19
15314;BME280;7757;52.626;4.746;2023-06-14T11:39:56;101717.47;;;26.50;35.11
15314;BME280;7757;52.626;4.746;2023-06-14T11:42:22;101679.19;;;26.14;35.28
15314;BME280;7757;52.626;4.746;2023-06-14T11:44:49;101585.72;;;25.48;36.08
15314;BME280;7757;52.626;4.746;2023-06-14T11:47:15;101660.91;;;26.34;35.52
15314;BME280;7757;52.626;4.746;2023-06-14T11:49:40;101609.91;;;26.48;34.63
15314;BME280;7757;52.626;4.746;2023-06-14T11:52:07;101673.22;;;26.22;35.08
15314;BME280;7757;52.626;4.746;2023-06-14T11:54:33;101630.00;;;25.35;34.49
15314;BME280;7757;52.626;4.746;2023-06-14T11:56:58;101710.88;;;26.36;34.28
15314;BME280;7757;52.626;4.746;2023-06-14T11:59:24;101632.72;;;25.82;34.25
15314;BME280;7757;52.626;4.746;2023-06-14T12:01:52;101718.72;;;25.34;33.98
15314;BME280;7757;52.626;4.746;2023-06-14T12:04:29;101672.22;;;25.39;34.39
15314;BME280;7757;52.626;4.746;2023-06-14T12:06:55;101683.00;;;25.50;34.65
15314;BME280;7757;52.626;4.746;2023-06-14T12:09:21;101596.06;;;24.94;34.90
15314;BME280;7757;52.626;4.746;2023-06-14T12:11:59;101592.91;;;25.59;34.70
15314;BME280;7757;52.626;4.746;2023-06-14T12:14:32;101662.38;;;25.90;34.55
15314;BME280;7757;52.626;4.746;2023-06-14T12:17:04;101662.25;;;25.65;34.98
15314;BME280;7757;52.626;4.746;2023-06-14T12:19:41;101715.78;;;25.82;36.19
15314;BME280;7757;52.626;4.746;2023-06-14T12:22:09;101696.09;;;25.90;34.86
15314;BME280;7757;52.626;4.746;2023-06-14T12:24:34;101645.16;;;25.47;34.53
15314;BME280;7757;52.626;4.746;2023-06-14T12:27:00;101615.84;;;25.48;35.55
15314;BME280;7757;52.626;4.746;2023-06-14T12:29:28;101705.13;;;25.86;35.20
15314;BME280;7757;52.626;4.746;2023-06-14T12:31:53;101653.06;;;25.44;35.62
15314;BME280;7757;52.626;4.746;2023-06-14T12:34:19;101653.13;;;25.54;36.06
15314;BME280;7757;52.626;4.746;2023-06-14T12:36:45;101599.47;;;25.16;35.61
15314;BME280;7757;52.626;4.746;2023-06-14T12:39:12;101713.44;;;26.06;35.33
15314;BME280;7757;52.626;4.746;2023-06-14T12:41:37;101689.44;;;25.76;35.24
15314;BME280;7757;52.626;4.746;2023-06-14T12:44:03;101666.63;;;25.66;35.80
15314;BME280;7757;52.626;4.746;2023-06-14T12:46:31;101642.00;;;25.29;36.20
15314;BME280;7757;52.626;4.746;2023-06-14T12:48:57;101684.66;;;26.03;35.66
15314;BME280;7757;52.626;4.746;2023-06-14T12:51:22;101500.19;;;24.47;35.90
15314;BME280;7757;52.626;4.746;2023-06-14T12:53:49;101660.53;;;25.17;35.95
15314;BME280;7757;52.626;4.746;2023-06-14T12:56:14;101676.09;;;25.11;36.17
15314;BME280;7757;52.626;4.746;2023-06-14T12:58:41;101715.81;;;25.92;35.30
15314;BME280;7757;52.626;4.746;2023-06-14T13:01:07;101724.78;;;25.73;36.01
15314;BME280;7757;52.626;4.746;2023-06-14T13:03:32;101616.06;;;25.00;35.97
15314;BME280;7757;52.626;4.746;2023-06-14T13:05:58;101514.69;;;23.46;37.06
15314;BME280;7757;52.626;4.746;2023-06-14T13:08:26;101652.78;;;25.04;35.98
15314;BME280;7757;52.626;4.746;2023-06-14T13:10:52;101714.91;;;25.72;35.53
15314;BME280;7757;52.626;4.746;2023-06-14T13:13:18;101646.53;;;25.13;34.77
15314;BME280;7757;52.626;4.746;2023-06-14T13:15:43;101571.28;;;24.47;35.22
15314;BME280;7757;52.626;4.746;2023-06-14T13:18:09;101668.13;;;25.46;34.75